sensor_id;sensor_type;location;lat;lon;timestamp;pressure;altitude;pressure_sealevel;temperature;humidity
37972;BME280;23794;48.234;8.344;2023-03-03T00:01:44;94370.31;;;-2.45;77.57
37972;BME280;23794;48.234;8.344;2023-03-03T00:04:11;94365.44;;;-2.43;77.55
37972;BME280;23794;48.234;8.344;2023-03-03T00:06:38;94372.56;;;-2.38;77.25
37972;BME280;23794;48.234;8.344;2023-03-03T00:09:04;94370.81;;;-2.34;77.63
37972;BME280;23794;48.234;8.344;2023-03-03T00:11:31;94372.88;;;-2.40;78.05
37972;BME280;23794;48.234;8.344;2023-03-03T00:13:58;94369.56;;;-2.37;78.00
37972;BME280;23794;48.234;8.344;2023-03-03T00:16:44;94369.38;;;-2.40;78.16
37972;BME280;23794;48.234;8.344;2023-03-03T00:19:14;94371.75;;;-2.39;78.08
37972;BME280;23794;48.234;8.344;2023-03-03T00:21:45;94369.41;;;-2.23;77.72
37972;BME280;23794;48.234;8.344;2023-03-03T00:26:41;94373.03;;;-2.28;78.29
37972;BME280;23794;48.234;8.344;2023-03-03T00:32:21;94366.56;;;-2.18;78.09
37972;BME280;23794;48.234;8.344;2023-03-03T00:34:50;94367.19;;;-2.12;77.13
37972;BME280;23794;48.234;8.344;2023-03-03T00:37:29;94369.09;;;-2.13;76.97
37972;BME280;23794;48.234;8.344;2023-03-03T00:42:27;94370.19;;;-2.31;78.28
37972;BME280;23794;48.234;8.344;2023-03-03T00:44:57;94370.19;;;-2.31;78.44
37972;BME280;23794;48.234;8.344;2023-03-03T00:47:25;94378.25;;;-2.31;78.38
37972;BME280;23794;48.234;8.344;2023-03-03T00:50:20;94380.78;;;-2.35;78.28
37972;BME280;23794;48.234;8.344;2023-03-03T00:53:04;94374.13;;;-2.29;77.92
37972;BME280;23794;48.234;8.344;2023-03-03T00:55:33;94379.19;;;-2.27;77.79
37972;BME280;23794;48.234;8.344;2023-03-03T00:58:00;94384.72;;;-2.32;77.82
37972;BME280;23794;48.234;8.344;2023-03-03T01:00:33;94379.03;;;-2.31;78.38
37972;BME280;23794;48.234;8.344;2023-03-03T01:03:05;94391.19;;;-2.33;78.12
37972;BME280;23794;48.234;8.344;2023-03-03T01:05:33;94384.56;;;-2.27;77.72
37972;BME280;23794;48.234;8.344;2023-03-03T01:08:00;94388.34;;;-2.28;77.79
37972;BME280;23794;48.234;8.344;2023-03-03T01:10:29;94379.66;;;-2.25;77.64
37972;BME280;23794;48.234;8.344;2023-03-03T01:12:58;94380.00;;;-2.26;77.85
37972;BME280;23794;48.234;8.344;2023-03-03T01:15:25;94377.91;;;-2.30;77.91
37972;BME280;23794;48.234;8.344;2023-03-03T01:17:51;94381.56;;;-2.25;77.42
37972;BME280;23794;48.234;8.344;2023-03-03T01:20:18;94375.72;;;-2.28;77.18
37972;BME280;23794;48.234;8.344;2023-03-03T01:22:45;94371.13;;;-2.45;77.93
37972;BME280;23794;48.234;8.344;2023-03-03T01:25:11;94373.81;;;-2.36;77.56
37972;BME280;23794;48.234;8.344;2023-03-03T01:27:38;94375.06;;;-2.42;78.35
37972;BME280;23794;48.234;8.344;2023-03-03T01:30:07;94374.44;;;-2.56;79.14
37972;BME280;23794;48.234;8.344;2023-03-03T01:32:34;94369.22;;;-2.53;79.27
37972;BME280;23794;48.234;8.344;2023-03-03T01:35:00;94367.66;;;-2.45;78.36
37972;BME280;23794;48.234;8.344;2023-03-03T01:37:27;94374.44;;;-2.39;78.01
37972;BME280;23794;48.234;8.344;2023-03-03T01:39:54;94369.72;;;-2.42;77.96
37972;BME280;23794;48.234;8.344;2023-03-03T01:42:21;94372.06;;;-2.40;78.35
37972;BME280;23794;48.234;8.344;2023-03-03T01:44:48;94373.00;;;-2.45;78.59
37972;BME280;23794;48.234;8.344;2023-03-03T01:47:21;94373.50;;;-2.43;77.98
37972;BME280;23794;48.234;8.344;2023-03-03T01:50:03;94368.28;;;-2.48;78.13
37972;BME280;23794;48.234;8.344;2023-03-03T01:52:37;94357.56;;;-2.48;77.61
37972;BME280;23794;48.234;8.344;2023-03-03T01:55:14;94356.91;;;-2.45;77.75
37972;BME280;23794;48.234;8.344;2023-03-03T01:57:45;94362.94;;;-2.48;77.88
37972;BME280;23794;48.234;8.344;2023-03-03T02:00:14;94372.69;;;-2.61;78.28
37972;BME280;23794;48.234;8.344;2023-03-03T02:02:42;94362.56;;;-2.64;78.53
37972;BME280;23794;48.234;8.344;2023-03-03T02:05:09;94367.47;;;-2.66;78.63
37972;BME280;23794;48.234;8.344;2023-03-03T02:07:37;94363.97;;;-2.67;78.86
37972;BME280;23794;48.234;8.344;2023-03-03T02:10:08;94363.22;;;-2.58;78.73
37972;BME280;23794;48.234;8.344;2023-03-03T02:12:45;94359.91;;;-2.55;77.93
37972;BME280;23794;48.234;8.344;2023-03-03T02:15:27;94359.59;;;-2.63;77.87
37972;BME280;23794;48.234;8.344;2023-03-03T02:17:58;94359.88;;;-2.73;77.92
37972;BME280;23794;48.234;8.344;2023-03-03T02:23:29;94349.94;;;-2.72;77.71
37972;BME280;23794;48.234;8.344;2023-03-03T02:26:14;94349.78;;;-2.67;77.70
37972;BME280;23794;48.234;8.344;2023-03-03T02:28:41;94343.13;;;-2.70;78.29
37972;BME280;23794;48.234;8.344;2023-03-03T02:31:14;94345.66;;;-2.82;78.69
37972;BME280;23794;48.234;8.344;2023-03-03T02:33:45;94337.59;;;-2.82;78.64
37972;BME280;23794;48.234;8.344;2023-03-03T02:36:15;94341.53;;;-2.88;78.77
37972;BME280;23794;48.234;8.344;2023-03-03T02:39:10;94335.41;;;-2.89;79.00
37972;BME280;23794;48.234;8.344;2023-03-03T02:41:54;94330.97;;;-2.85;78.60
37972;BME280;23794;48.234;8.344;2023-03-03T02:44:31;94331.75;;;-2.93;78.78
37972;BME280;23794;48.234;8.344;2023-03-03T02:46:58;94331.59;;;-2.88;78.64
37972;BME280;23794;48.234;8.344;2023-03-03T02:49:32;94330.81;;;-2.88;78.31
37972;BME280;23794;48.234;8.344;2023-03-03T02:51:59;94329.41;;;-2.86;78.55
37972;BME280;23794;48.234;8.344;2023-03-03T02:54:27;94327.66;;;-2.91;78.13
37972;BME280;23794;48.234;8.344;2023-03-03T02:56:57;94337.44;;;-2.95;78.29
37972;BME280;23794;48.234;8.344;2023-03-03T02:59:25;94332.03;;;-3.03;78.60
37972;BME280;23794;48.234;8.344;2023-03-03T03:01:53;94338.19;;;-3.03;77.77
37972;BME280;23794;48.234;8.344;2023-03-03T03:04:23;94336.75;;;-3.09;78.42
37972;BME280;23794;48.234;8.344;2023-03-03T03:06:52;94334.19;;;-3.14;78.41
37972;BME280;23794;48.234;8.344;2023-03-03T03:09:21;94333.75;;;-3.16;78.44
37972;BME280;23794;48.234;8.344;2023-03-03T03:11:50;94333.31;;;-3.01;78.24
37972;BME280;23794;48.234;8.344;2023-03-03T03:14:20;94328.91;;;-2.97;79.03
37972;BME280;23794;48.234;8.344;2023-03-03T03:16:46;94339.28;;;-3.04;79.24
37972;BME280;23794;48.234;8.344;2023-03-03T03:19:13;94340.22;;;-3.00;78.55
37972;BME280;23794;48.234;8.344;2023-03-03T03:21:40;94333.94;;;-3.04;78.44
37972;BME280;23794;48.234;8.344;2023-03-03T03:24:08;94331.41;;;-3.09;79.01
37972;BME280;23794;48.234;8.344;2023-03-03T03:26:38;94346.22;;;-3.03;78.90
37972;BME280;23794;48.234;8.344;2023-03-03T03:29:04;94343.56;;;-3.03;78.35
37972;BME280;23794;48.234;8.344;2023-03-03T03:31:33;94345.13;;;-3.02;78.31
37972;BME280;23794;48.234;8.344;2023-03-03T03:34:01;94339.44;;;-3.09;78.61
37972;BME280;23794;48.234;8.344;2023-03-03T03:36:28;94341.78;;;-3.16;79.10
37972;BME280;23794;48.234;8.344;2023-03-03T03:38:55;94349.81;;;-3.16;79.08
37972;BME280;23794;48.234;8.344;2023-03-03T03:41:22;94351.25;;;-3.10;78.46
37972;BME280;23794;48.234;8.344;2023-03-03T03:43:48;94352.19;;;-3.15;78.48
37972;BME280;23794;48.234;8.344;2023-03-03T03:46:15;94355.03;;;-3.11;78.14
37972;BME280;23794;48.234;8.344;2023-03-03T03:48:42;94354.88;;;-3.15;78.60
37972;BME280;23794;48.234;8.344;2023-03-03T03:51:11;94361.16;;;-3.19;78.96
37972;BME280;23794;48.234;8.344;2023-03-03T03:53:38;94359.25;;;-3.19;78.83
37972;BME280;23794;48.234;8.344;2023-03-03T03:56:05;94360.72;;;-3.13;78.70
37972;BME280;23794;48.234;8.344;2023-03-03T03:58:32;94365.59;;;-3.15;78.09
37972;BME280;23794;48.234;8.344;2023-03-03T04:01:07;94365.09;;;-3.17;78.22
37972;BME280;23794;48.234;8.344;2023-03-03T04:03:39;94360.41;;;-3.11;78.32
37972;BME280;23794;48.234;8.344;2023-03-03T04:06:09;94362.16;;;-3.07;78.23
37972;BME280;23794;48.234;8.344;2023-03-03T04:08:36;94361.16;;;-3.11;78.36
37972;BME280;23794;48.234;8.344;2023-03-03T04:11:03;94366.19;;;-3.18;79.02
37972;BME280;23794;48.234;8.344;2023-03-03T04:13:30;94360.06;;;-3.18;78.96
37972;BME280;23794;48.234;8.344;2023-03-03T04:16:01;94364.97;;;-3.12;78.30
37972;BME280;23794;48.234;8.344;2023-03-03T04:18:28;94365.59;;;-3.15;78.53
37972;BME280;23794;48.234;8.344;2023-03-03T04:20:56;94362.56;;;-3.22;78.45
37972;BME280;23794;48.234;8.344;2023-03-03T04:23:24;94364.44;;;-3.23;78.25
37972;BME280;23794;48.234;8.344;2023-03-03T04:25:51;94361.72;;;-3.31;78.83
37972;BME280;23794;48.234;8.344;2023-03-03T04:28:18;94370.09;;;-3.33;78.83
37972;BME280;23794;48.234;8.344;2023-03-03T04:30:48;94373.72;;;-3.29;78.93
37972;BME280;23794;48.234;8.344;2023-03-03T04:33:16;94374.38;;;-3.23;78.84
37972;BME280;23794;48.234;8.344;2023-03-03T04:35:45;94371.88;;;-3.11;79.08
37972;BME280;23794;48.234;8.344;2023-03-03T04:38:11;94368.34;;;-2.97;78.76
37972;BME280;23794;48.234;8.344;2023-03-03T04:40:40;94367.91;;;-2.82;78.84
37972;BME280;23794;48.234;8.344;2023-03-03T04:43:08;94361.91;;;-2.70;78.64
37972;BME280;23794;48.234;8.344;2023-03-03T04:45:36;94360.06;;;-2.52;77.64
37972;BME280;23794;48.234;8.344;2023-03-03T04:48:03;94362.75;;;-2.52;77.44
37972;BME280;23794;48.234;8.344;2023-03-03T04:50:29;94358.97;;;-2.42;77.45
37972;BME280;23794;48.234;8.344;2023-03-03T04:52:56;94365.28;;;-2.38;78.09
37972;BME280;23794;48.234;8.344;2023-03-03T04:55:23;94368.28;;;-2.39;78.58
37972;BME280;23794;48.234;8.344;2023-03-03T04:57:50;94359.13;;;-2.30;78.59
37972;BME280;23794;48.234;8.344;2023-03-03T05:00:17;94361.19;;;-2.26;78.65
37972;BME280;23794;48.234;8.344;2023-03-03T05:02:46;94362.00;;;-2.17;78.23
37972;BME280;23794;48.234;8.344;2023-03-03T05:05:13;94365.31;;;-2.20;78.63
37972;BME280;23794;48.234;8.344;2023-03-03T05:07:40;94358.97;;;-2.07;78.41
37972;BME280;23794;48.234;8.344;2023-03-03T05:10:07;94361.97;;;-2.00;77.16
37972;BME280;23794;48.234;8.344;2023-03-03T05:12:34;94371.13;;;-2.01;77.28
37972;BME280;23794;48.234;8.344;2023-03-03T05:15:00;94368.44;;;-2.01;77.33
37972;BME280;23794;48.234;8.344;2023-03-03T05:17:27;94369.56;;;-1.93;76.96
37972;BME280;23794;48.234;8.344;2023-03-03T05:19:53;94374.63;;;-1.91;77.26
37972;BME280;23794;48.234;8.344;2023-03-03T05:22:23;94375.09;;;-1.89;77.51
37972;BME280;23794;48.234;8.344;2023-03-03T05:24:49;94376.34;;;-1.78;77.23
37972;BME280;23794;48.234;8.344;2023-03-03T05:27:17;94372.38;;;-1.81;76.98
37972;BME280;23794;48.234;8.344;2023-03-03T05:29:43;94374.44;;;-1.86;77.31
37972;BME280;23794;48.234;8.344;2023-03-03T05:32:10;94377.78;;;-1.89;77.46
37972;BME280;23794;48.234;8.344;2023-03-03T05:34:36;94374.44;;;-1.77;77.16
37972;BME280;23794;48.234;8.344;2023-03-03T05:37:03;94373.19;;;-1.80;77.10
37972;BME280;23794;48.234;8.344;2023-03-03T05:39:33;94371.41;;;-1.67;76.84
37972;BME280;23794;48.234;8.344;2023-03-03T05:42:00;94376.63;;;-1.71;76.89
37972;BME280;23794;48.234;8.344;2023-03-03T05:44:27;94378.06;;;-1.65;77.09
37972;BME280;23794;48.234;8.344;2023-03-03T05:46:54;94373.16;;;-1.54;76.33
37972;BME280;23794;48.234;8.344;2023-03-03T05:49:22;94374.88;;;-1.58;77.09
37972;BME280;23794;48.234;8.344;2023-03-03T05:51:48;94376.28;;;-1.52;77.42
37972;BME280;23794;48.234;8.344;2023-03-03T05:54:15;94374.06;;;-1.50;77.36
37972;BME280;23794;48.234;8.344;2023-03-03T05:56:44;94378.97;;;-1.43;77.30
37972;BME280;23794;48.234;8.344;2023-03-03T05:59:10;94376.09;;;-1.38;76.93
37972;BME280;23794;48.234;8.344;2023-03-03T06:01:37;94382.09;;;-1.41;77.03
37972;BME280;23794;48.234;8.344;2023-03-03T06:04:04;94385.47;;;-1.44;77.16
37972;BME280;23794;48.234;8.344;2023-03-03T06:06:30;94386.84;;;-1.38;77.27
37972;BME280;23794;48.234;8.344;2023-03-03T06:08:57;94385.09;;;-1.34;77.25
37972;BME280;23794;48.234;8.344;2023-03-03T06:11:24;94380.53;;;-1.33;77.14
37972;BME280;23794;48.234;8.344;2023-03-03T06:13:50;94395.69;;;-1.37;77.29
37972;BME280;23794;48.234;8.344;2023-03-03T06:16:17;94401.41;;;-1.39;77.38
37972;BME280;23794;48.234;8.344;2023-03-03T06:18:43;94402.03;;;-1.33;77.30
37972;BME280;23794;48.234;8.344;2023-03-03T06:21:10;94405.63;;;-1.20;77.35
37972;BME280;23794;48.234;8.344;2023-03-03T06:23:37;94408.47;;;-1.25;76.95
37972;BME280;23794;48.234;8.344;2023-03-03T06:26:04;94407.38;;;-1.24;77.14
37972;BME280;23794;48.234;8.344;2023-03-03T06:28:30;94414.81;;;-1.21;76.69
37972;BME280;23794;48.234;8.344;2023-03-03T06:30:57;94408.78;;;-1.18;76.63
37972;BME280;23794;48.234;8.344;2023-03-03T06:33:24;94410.50;;;-1.13;76.54
37972;BME280;23794;48.234;8.344;2023-03-03T06:35:51;94415.72;;;-1.17;77.02
37972;BME280;23794;48.234;8.344;2023-03-03T06:38:19;94413.69;;;-1.20;77.46
37972;BME280;23794;48.234;8.344;2023-03-03T06:40:46;94419.81;;;-1.11;77.45
37972;BME280;23794;48.234;8.344;2023-03-03T06:43:13;94419.03;;;-1.11;77.50
37972;BME280;23794;48.234;8.344;2023-03-03T06:45:40;94426.94;;;-1.06;77.19
37972;BME280;23794;48.234;8.344;2023-03-03T06:48:06;94418.72;;;-1.01;76.96
37972;BME280;23794;48.234;8.344;2023-03-03T06:50:33;94432.75;;;-0.95;77.10
37972;BME280;23794;48.234;8.344;2023-03-03T06:53:11;94432.59;;;-0.90;76.89
37972;BME280;23794;48.234;8.344;2023-03-03T06:55:39;94437.53;;;-1.01;77.37
37972;BME280;23794;48.234;8.344;2023-03-03T06:58:14;94435.28;;;-0.99;77.87
37972;BME280;23794;48.234;8.344;2023-03-03T07:00:43;94436.72;;;-0.93;77.69
37972;BME280;23794;48.234;8.344;2023-03-03T07:03:20;94440.94;;;-0.83;77.39
37972;BME280;23794;48.234;8.344;2023-03-03T07:05:48;94438.84;;;-0.69;76.84
37972;BME280;23794;48.234;8.344;2023-03-03T07:08:19;94443.53;;;-0.57;76.32
37972;BME280;23794;48.234;8.344;2023-03-03T07:10:47;94447.16;;;-0.53;75.75
37972;BME280;23794;48.234;8.344;2023-03-03T07:13:23;94447.16;;;-0.53;76.49
37972;BME280;23794;48.234;8.344;2023-03-03T07:15:52;94445.81;;;-0.38;76.33
37972;BME280;23794;48.234;8.344;2023-03-03T07:18:33;94440.44;;;-0.38;76.45
37972;BME280;23794;48.234;8.344;2023-03-03T07:23:49;94450.50;;;-0.26;76.04
37972;BME280;23794;48.234;8.344;2023-03-03T07:26:19;94452.53;;;-0.23;76.02
37972;BME280;23794;48.234;8.344;2023-03-03T07:28:54;94453.97;;;-0.25;76.05
37972;BME280;23794;48.234;8.344;2023-03-03T07:31:27;94444.91;;;-0.21;76.33
37972;BME280;23794;48.234;8.344;2023-03-03T07:33:56;94451.81;;;-0.11;76.18
37972;BME280;23794;48.234;8.344;2023-03-03T07:36:43;94453.69;;;-0.02;76.41
37972;BME280;23794;48.234;8.344;2023-03-03T07:39:37;94457.88;;;0.07;76.20
37972;BME280;23794;48.234;8.344;2023-03-03T07:45:28;94458.53;;;0.25;75.80
37972;BME280;23794;48.234;8.344;2023-03-03T07:48:16;94457.06;;;0.37;75.33
37972;BME280;23794;48.234;8.344;2023-03-03T07:50:44;94459.66;;;0.46;75.30
37972;BME280;23794;48.234;8.344;2023-03-03T07:53:21;94467.97;;;0.40;75.04
37972;BME280;23794;48.234;8.344;2023-03-03T07:55:50;94468.03;;;0.32;75.59
37972;BME280;23794;48.234;8.344;2023-03-03T07:58:22;94467.97;;;0.40;75.58
37972;BME280;23794;48.234;8.344;2023-03-03T08:03:55;94485.25;;;0.39;75.89
37972;BME280;23794;48.234;8.344;2023-03-03T08:09:23;94482.59;;;0.73;75.20
37972;BME280;23794;48.234;8.344;2023-03-03T08:14:36;94485.78;;;0.87;75.17
37972;BME280;23794;48.234;8.344;2023-03-03T08:17:13;94487.38;;;0.88;74.93
37972;BME280;23794;48.234;8.344;2023-03-03T08:19:42;94488.97;;;1.02;74.51
37972;BME280;23794;48.234;8.344;2023-03-03T08:24:55;94493.09;;;0.87;74.87
37972;BME280;23794;48.234;8.344;2023-03-03T08:27:22;94494.13;;;0.95;74.27
37972;BME280;23794;48.234;8.344;2023-03-03T08:29:48;94492.78;;;1.01;74.41
37972;BME280;23794;48.234;8.344;2023-03-03T08:32:15;94490.16;;;1.13;74.07
37972;BME280;23794;48.234;8.344;2023-03-03T08:34:42;94491.72;;;1.14;74.15
37972;BME280;23794;48.234;8.344;2023-03-03T08:37:09;94491.75;;;1.27;74.07
37972;BME280;23794;48.234;8.344;2023-03-03T08:39:35;94489.47;;;1.16;74.18
37972;BME280;23794;48.234;8.344;2023-03-03T08:42:02;94492.28;;;1.20;74.32
37972;BME280;23794;48.234;8.344;2023-03-03T08:44:28;94493.13;;;1.33;74.07
37972;BME280;23794;48.234;8.344;2023-03-03T08:46:55;94486.84;;;1.41;74.07
37972;BME280;23794;48.234;8.344;2023-03-03T08:49:21;94490.09;;;1.47;74.07
37972;BME280;23794;48.234;8.344;2023-03-03T08:51:48;94488.22;;;1.72;73.47
37972;BME280;23794;48.234;8.344;2023-03-03T08:54:15;94494.97;;;1.91;72.87
37972;BME280;23794;48.234;8.344;2023-03-03T08:56:41;94494.41;;;1.97;72.19
37972;BME280;23794;48.234;8.344;2023-03-03T08:59:08;94491.13;;;2.04;72.65
37972;BME280;23794;48.234;8.344;2023-03-03T09:01:34;94492.59;;;2.14;71.83
37972;BME280;23794;48.234;8.344;2023-03-03T09:04:01;94496.63;;;2.20;71.44
37972;BME280;23794;48.234;8.344;2023-03-03T09:06:28;94495.38;;;2.30;71.90
37972;BME280;23794;48.234;8.344;2023-03-03T09:08:54;94493.53;;;2.46;71.43
37972;BME280;23794;48.234;8.344;2023-03-03T09:11:24;94497.78;;;2.60;71.32
37972;BME280;23794;48.234;8.344;2023-03-03T09:14:05;94500.03;;;2.70;70.25
37972;BME280;23794;48.234;8.344;2023-03-03T09:16:37;94506.09;;;2.67;70.65
37972;BME280;23794;48.234;8.344;2023-03-03T09:19:26;94503.03;;;2.81;70.50
37972;BME280;23794;48.234;8.344;2023-03-03T09:21:55;94502.88;;;2.90;70.82
37972;BME280;23794;48.234;8.344;2023-03-03T09:24:27;94501.25;;;3.01;70.64
37972;BME280;23794;48.234;8.344;2023-03-03T09:26:54;94506.50;;;3.10;69.41
37972;BME280;23794;48.234;8.344;2023-03-03T09:29:26;94506.88;;;3.08;69.12
37972;BME280;23794;48.234;8.344;2023-03-03T09:31:56;94506.47;;;3.22;69.35
37972;BME280;23794;48.234;8.344;2023-03-03T09:34:39;94503.44;;;3.40;68.13
37972;BME280;23794;48.234;8.344;2023-03-03T09:39:43;94501.63;;;3.60;68.05
37972;BME280;23794;48.234;8.344;2023-03-03T09:42:39;94493.16;;;3.78;66.42
37972;BME280;23794;48.234;8.344;2023-03-03T09:45:35;94500.91;;;3.95;66.02
37972;BME280;23794;48.234;8.344;2023-03-03T09:56:53;94498.81;;;3.88;62.86
37972;BME280;23794;48.234;8.344;2023-03-03T09:59:46;94501.63;;;3.76;61.35
37972;BME280;23794;48.234;8.344;2023-03-03T10:02:37;94509.03;;;3.95;62.75
37972;BME280;23794;48.234;8.344;2023-03-03T10:05:33;94500.28;;;4.18;61.27
37972;BME280;23794;48.234;8.344;2023-03-03T10:08:18;94500.72;;;4.20;60.44
37972;BME280;23794;48.234;8.344;2023-03-03T10:11:31;94509.81;;;4.12;60.18
37972;BME280;23794;48.234;8.344;2023-03-03T10:14:01;94510.38;;;4.37;60.11
37972;BME280;23794;48.234;8.344;2023-03-03T10:19:52;94505.81;;;4.77;59.36
37972;BME280;23794;48.234;8.344;2023-03-03T10:23:29;94508.53;;;4.77;58.68
37972;BME280;23794;48.234;8.344;2023-03-03T10:25:40;94510.78;;;5.10;58.52
37972;BME280;23794;48.234;8.344;2023-03-03T10:31:24;94514.41;;;5.18;58.55
37972;BME280;23794;48.234;8.344;2023-03-03T10:34:28;94510.06;;;5.33;58.38
37972;BME280;23794;48.234;8.344;2023-03-03T10:48:09;94507.09;;;5.42;56.57
37972;BME280;23794;48.234;8.344;2023-03-03T10:50:53;94510.44;;;5.55;56.40
37972;BME280;23794;48.234;8.344;2023-03-03T10:53:30;94511.00;;;5.87;57.15
37972;BME280;23794;48.234;8.344;2023-03-03T10:58:45;94506.75;;;6.13;55.61
37972;BME280;23794;48.234;8.344;2023-03-03T11:01:29;94508.44;;;6.21;55.49
37972;BME280;23794;48.234;8.344;2023-03-03T11:04:24;94512.34;;;6.24;55.07
37972;BME280;23794;48.234;8.344;2023-03-03T11:07:26;94508.19;;;6.07;55.25
37972;BME280;23794;48.234;8.344;2023-03-03T11:10:12;94503.44;;;6.27;56.13
37972;BME280;23794;48.234;8.344;2023-03-03T11:15:53;94498.47;;;6.33;54.80
37972;BME280;23794;48.234;8.344;2023-03-03T11:21:21;94488.06;;;6.11;55.30
37972;BME280;23794;48.234;8.344;2023-03-03T11:24:17;94495.69;;;6.02;55.56
37972;BME280;23794;48.234;8.344;2023-03-03T11:32:37;94501.75;;;6.19;54.72
37972;BME280;23794;48.234;8.344;2023-03-03T11:37:56;94507.47;;;5.63;56.32
37972;BME280;23794;48.234;8.344;2023-03-03T11:40:49;94495.94;;;5.70;56.70
37972;BME280;23794;48.234;8.344;2023-03-03T11:46:17;94480.94;;;6.03;56.11
37972;BME280;23794;48.234;8.344;2023-03-03T11:48:57;94478.66;;;6.32;55.83
37972;BME280;23794;48.234;8.344;2023-03-03T11:51:39;94491.38;;;6.24;54.76
37972;BME280;23794;48.234;8.344;2023-03-03T11:54:23;94484.59;;;6.41;54.65
37972;BME280;23794;48.234;8.344;2023-03-03T11:56:55;94488.41;;;6.37;55.16
37972;BME280;23794;48.234;8.344;2023-03-03T11:59:34;94484.66;;;6.45;55.18
37972;BME280;23794;48.234;8.344;2023-03-03T12:02:29;94474.28;;;6.54;55.46
37972;BME280;23794;48.234;8.344;2023-03-03T12:10:58;94475.03;;;6.82;54.05
37972;BME280;23794;48.234;8.344;2023-03-03T12:16:18;94470.59;;;6.70;53.45
37972;BME280;23794;48.234;8.344;2023-03-03T12:27:59;94460.41;;;6.93;53.23
37972;BME280;23794;48.234;8.344;2023-03-03T12:36:20;94454.84;;;7.20;53.03
37972;BME280;23794;48.234;8.344;2023-03-03T12:41:45;94461.09;;;7.21;53.39
37972;BME280;23794;48.234;8.344;2023-03-03T12:47:21;94465.53;;;7.36;53.70
37972;BME280;23794;48.234;8.344;2023-03-03T12:50:02;94459.84;;;7.49;53.05
37972;BME280;23794;48.234;8.344;2023-03-03T13:04:02;94462.75;;;7.70;53.10
37972;BME280;23794;48.234;8.344;2023-03-03T13:07:03;94459.41;;;7.47;52.79
37972;BME280;23794;48.234;8.344;2023-03-03T13:09:33;94457.38;;;7.36;53.30
37972;BME280;23794;48.234;8.344;2023-03-03T13:12:33;94449.97;;;7.37;53.01
37972;BME280;23794;48.234;8.344;2023-03-03T13:15:24;94457.28;;;7.67;53.55
37972;BME280;23794;48.234;8.344;2023-03-03T13:18:27;94448.00;;;7.75;52.60
37972;BME280;23794;48.234;8.344;2023-03-03T13:26:53;94444.25;;;7.94;52.43
37972;BME280;23794;48.234;8.344;2023-03-03T13:29:41;94443.06;;;7.92;51.62
37972;BME280;23794;48.234;8.344;2023-03-03T13:32:19;94444.88;;;7.77;52.06
37972;BME280;23794;48.234;8.344;2023-03-03T13:35:02;94434.91;;;7.95;51.94
37972;BME280;23794;48.234;8.344;2023-03-03T13:37:40;94433.31;;;7.91;52.20
37972;BME280;23794;48.234;8.344;2023-03-03T13:42:49;94425.84;;;8.40;50.90
37972;BME280;23794;48.234;8.344;2023-03-03T13:45:33;94421.25;;;8.55;50.72
37972;BME280;23794;48.234;8.344;2023-03-03T13:51:20;94425.25;;;8.72;49.15
37972;BME280;23794;48.234;8.344;2023-03-03T13:57:38;94429.00;;;8.45;49.96
37972;BME280;23794;48.234;8.344;2023-03-03T14:02:40;94417.63;;;8.32;50.72
37972;BME280;23794;48.234;8.344;2023-03-03T14:10:29;94419.22;;;8.41;50.17
37972;BME280;23794;48.234;8.344;2023-03-03T14:13:12;94414.16;;;8.35;50.60
37972;BME280;23794;48.234;8.344;2023-03-03T14:16:01;94415.16;;;8.09;50.97
37972;BME280;23794;48.234;8.344;2023-03-03T14:18:35;94417.31;;;7.85;52.00
37972;BME280;23794;48.234;8.344;2023-03-03T14:21:10;94423.13;;;7.84;51.38
37972;BME280;23794;48.234;8.344;2023-03-03T14:24:10;94417.56;;;8.22;51.71
37972;BME280;23794;48.234;8.344;2023-03-03T14:26:49;94413.97;;;8.10;51.06
37972;BME280;23794;48.234;8.344;2023-03-03T14:32:01;94420.19;;;8.07;51.99
37972;BME280;23794;48.234;8.344;2023-03-03T14:34:37;94418.03;;;8.34;50.71
37972;BME280;23794;48.234;8.344;2023-03-03T14:37:20;94424.63;;;8.30;50.51
37972;BME280;23794;48.234;8.344;2023-03-03T14:39:58;94415.91;;;8.06;51.30
37972;BME280;23794;48.234;8.344;2023-03-03T14:42:31;94416.56;;;7.92;51.92
37972;BME280;23794;48.234;8.344;2023-03-03T14:45:00;94411.34;;;7.69;52.15
37972;BME280;23794;48.234;8.344;2023-03-03T14:47:30;94423.00;;;7.66;52.70
37972;BME280;23794;48.234;8.344;2023-03-03T14:49:57;94427.63;;;7.62;52.91
37972;BME280;23794;48.234;8.344;2023-03-03T14:52:32;94423.75;;;7.63;53.29
37972;BME280;23794;48.234;8.344;2023-03-03T14:55:01;94418.34;;;7.66;52.57
37972;BME280;23794;48.234;8.344;2023-03-03T15:00:00;94417.72;;;7.43;53.27
37972;BME280;23794;48.234;8.344;2023-03-03T15:05:56;94415.25;;;7.30;53.45
37972;BME280;23794;48.234;8.344;2023-03-03T15:08:34;94401.84;;;7.14;54.00
37972;BME280;23794;48.234;8.344;2023-03-03T15:11:31;94412.34;;;7.12;54.24
37972;BME280;23794;48.234;8.344;2023-03-03T15:14:13;94409.16;;;7.03;54.70
37972;BME280;23794;48.234;8.344;2023-03-03T15:16:40;94405.34;;;7.11;54.63
37972;BME280;23794;48.234;8.344;2023-03-03T15:27:41;94410.91;;;7.22;54.55
37972;BME280;23794;48.234;8.344;2023-03-03T15:30:28;94411.75;;;7.30;54.31
37972;BME280;23794;48.234;8.344;2023-03-03T15:35:49;94411.81;;;7.37;53.65
37972;BME280;23794;48.234;8.344;2023-03-03T15:38:27;94415.31;;;7.34;54.43
37972;BME280;23794;48.234;8.344;2023-03-03T15:41:09;94414.44;;;7.26;54.33
37972;BME280;23794;48.234;8.344;2023-03-03T15:44:08;94410.53;;;6.89;53.73
37972;BME280;23794;48.234;8.344;2023-03-03T15:47:08;94412.41;;;6.82;55.14
37972;BME280;23794;48.234;8.344;2023-03-03T15:49:53;94410.97;;;6.91;54.91
37972;BME280;23794;48.234;8.344;2023-03-03T15:59:04;94412.72;;;6.73;54.88
37972;BME280;23794;48.234;8.344;2023-03-03T16:01:40;94414.25;;;6.70;55.31
37972;BME280;23794;48.234;8.344;2023-03-03T16:04:13;94426.63;;;6.68;54.65
37972;BME280;23794;48.234;8.344;2023-03-03T16:07:09;94423.50;;;6.66;55.07
37972;BME280;23794;48.234;8.344;2023-03-03T16:12:37;94417.81;;;6.78;55.12
37972;BME280;23794;48.234;8.344;2023-03-03T16:21:02;94430.22;;;6.45;56.27
37972;BME280;23794;48.234;8.344;2023-03-03T16:23:55;94437.47;;;6.34;55.31
37972;BME280;23794;48.234;8.344;2023-03-03T16:26:53;94443.66;;;6.30;55.30
37972;BME280;23794;48.234;8.344;2023-03-03T16:34:35;94453.56;;;5.92;57.70
37972;BME280;23794;48.234;8.344;2023-03-03T16:37:17;94455.31;;;5.77;58.41
37972;BME280;23794;48.234;8.344;2023-03-03T16:40:00;94461.59;;;5.58;58.55